sensor_id;sensor_type;location;lat;lon;timestamp;pressure;altitude;pressure_sealevel;temperature;humidity
69198;BME280;56311;50.298;8.514;2023-09-07T00:00:00;98230.0;;;15.4;94.9
69198;BME280;56311;50.298;8.514;2023-09-07T00:02:00;98230.0;;;15.4;94.6
69198;BME280;56311;50.298;8.514;2023-09-07T00:04:00;98220.0;;;15.3;95.2
69198;BME280;56311;50.298;8.514;2023-09-07T00:06:00;98220.0;;;15.3;95.7
69198;BME280;56311;50.298;8.514;2023-09-07T00:08:00;98220.0;;;15.5;95.2
69198;BME280;56311;50.298;8.514;2023-09-07T00:10:00;98220.0;;;15.4;95.0
69198;BME280;56311;50.298;8.514;2023-09-07T00:12:00;98220.0;;;15.3;96.1
69198;BME280;56311;50.298;8.514;2023-09-07T00:14:00;98220.0;;;15.5;94.7
69198;BME280;56311;50.298;8.514;2023-09-07T00:16:01;98220.0;;;15.4;94.5
69198;BME280;56311;50.298;8.514;2023-09-07T00:18:00;98220.0;;;15.4;95.4
69198;BME280;56311;50.298;8.514;2023-09-07T00:20:00;98220.0;;;15.4;95.7
69198;BME280;56311;50.298;8.514;2023-09-07T00:22:00;98220.0;;;15.1;96.5
69198;BME280;56311;50.298;8.514;2023-09-07T00:24:00;98220.0;;;15.1;97.6
69198;BME280;56311;50.298;8.514;2023-09-07T00:26:01;98220.0;;;15.2;97.3
69198;BME280;56311;50.298;8.514;2023-09-07T00:28:00;98220.0;;;15.4;96.1
69198;BME280;56311;50.298;8.514;2023-09-07T00:30:00;98220.0;;;15.2;95.8
69198;BME280;56311;50.298;8.514;2023-09-07T00:32:00;98220.0;;;15.1;97.4
69198;BME280;56311;50.298;8.514;2023-09-07T00:34:01;98220.0;;;14.9;98.2
69198;BME280;56311;50.298;8.514;2023-09-07T00:36:01;98220.0;;;14.9;98.9
69198;BME280;56311;50.298;8.514;2023-09-07T00:38:01;98220.0;;;14.9;98.6
69198;BME280;56311;50.298;8.514;2023-09-07T00:40:00;98210.0;;;15.1;98.2
69198;BME280;56311;50.298;8.514;2023-09-07T00:42:00;98210.0;;;15.1;97.6
69198;BME280;56311;50.298;8.514;2023-09-07T00:44:00;98210.0;;;15.2;97.2
69198;BME280;56311;50.298;8.514;2023-09-07T00:46:00;98210.0;;;15.1;96.9
69198;BME280;56311;50.298;8.514;2023-09-07T00:48:00;98210.0;;;14.9;98.4
69198;BME280;56311;50.298;8.514;2023-09-07T00:50:00;98200.0;;;15.0;98.9
69198;BME280;56311;50.298;8.514;2023-09-07T00:52:00;98200.0;;;15.1;97.4
69198;BME280;56311;50.298;8.514;2023-09-07T00:54:00;98200.0;;;15.1;97.6
69198;BME280;56311;50.298;8.514;2023-09-07T00:56:02;98200.0;;;14.9;97.9
69198;BME280;56311;50.298;8.514;2023-09-07T00:58:00;98200.0;;;15.0;97.4
69198;BME280;56311;50.298;8.514;2023-09-07T01:00:00;98200.0;;;14.9;97.8
69198;BME280;56311;50.298;8.514;2023-09-07T01:02:00;98200.0;;;15.0;97.7
69198;BME280;56311;50.298;8.514;2023-09-07T01:04:00;98200.0;;;14.9;97.8
69198;BME280;56311;50.298;8.514;2023-09-07T01:06:03;98200.0;;;14.9;97.6
69198;BME280;56311;50.298;8.514;2023-09-07T01:08:06;98190.0;;;15.0;97.7
69198;BME280;56311;50.298;8.514;2023-09-07T01:10:00;98190.0;;;15.0;97.8
69198;BME280;56311;50.298;8.514;2023-09-07T01:12:02;98190.0;;;14.9;98.0
69198;BME280;56311;50.298;8.514;2023-09-07T01:14:00;98190.0;;;14.9;97.9
69198;BME280;56311;50.298;8.514;2023-09-07T01:16:00;98190.0;;;15.0;97.6
69198;BME280;56311;50.298;8.514;2023-09-07T01:18:01;98190.0;;;15.1;96.8
69198;BME280;56311;50.298;8.514;2023-09-07T01:20:04;98190.0;;;15.0;97.2
69198;BME280;56311;50.298;8.514;2023-09-07T01:22:00;98190.0;;;15.0;97.2
69198;BME280;56311;50.298;8.514;2023-09-07T01:24:01;98190.0;;;14.9;97.7
69198;BME280;56311;50.298;8.514;2023-09-07T01:26:00;98190.0;;;14.8;97.9
69198;BME280;56311;50.298;8.514;2023-09-07T01:28:00;98190.0;;;14.9;97.8
69198;BME280;56311;50.298;8.514;2023-09-07T01:30:00;98180.0;;;14.9;98.2
69198;BME280;56311;50.298;8.514;2023-09-07T01:32:00;98180.0;;;15.0;98.0
69198;BME280;56311;50.298;8.514;2023-09-07T01:34:00;98180.0;;;15.0;97.5
69198;BME280;56311;50.298;8.514;2023-09-07T01:36:00;98180.0;;;15.0;97.1
69198;BME280;56311;50.298;8.514;2023-09-07T01:38:01;98180.0;;;15.0;97.0
69198;BME280;56311;50.298;8.514;2023-09-07T01:40:00;98180.0;;;14.5;98.9
69198;BME280;56311;50.298;8.514;2023-09-07T01:42:00;98170.0;;;14.7;99.2
69198;BME280;56311;50.298;8.514;2023-09-07T01:44:00;98180.0;;;14.8;98.7
69198;BME280;56311;50.298;8.514;2023-09-07T01:46:00;98180.0;;;14.7;99.2
69198;BME280;56311;50.298;8.514;2023-09-07T01:48:00;98180.0;;;14.6;99.9
69198;BME280;56311;50.298;8.514;2023-09-07T01:50:00;98180.0;;;14.8;99.1
69198;BME280;56311;50.298;8.514;2023-09-07T01:52:02;98180.0;;;14.8;98.7
69198;BME280;56311;50.298;8.514;2023-09-07T01:54:00;98180.0;;;14.8;98.5
69198;BME280;56311;50.298;8.514;2023-09-07T01:56:00;98180.0;;;14.8;98.6
69198;BME280;56311;50.298;8.514;2023-09-07T01:58:00;98190.0;;;14.8;98.7
69198;BME280;56311;50.298;8.514;2023-09-07T02:00:00;98190.0;;;14.7;99.2
69198;BME280;56311;50.298;8.514;2023-09-07T02:02:00;98190.0;;;14.8;98.7
69198;BME280;56311;50.298;8.514;2023-09-07T02:04:00;98190.0;;;14.7;98.6
69198;BME280;56311;50.298;8.514;2023-09-07T02:06:00;98190.0;;;14.7;98.9
69198;BME280;56311;50.298;8.514;2023-09-07T02:08:01;98190.0;;;14.7;99.0
69198;BME280;56311;50.298;8.514;2023-09-07T02:10:01;98190.0;;;14.7;98.8
69198;BME280;56311;50.298;8.514;2023-09-07T02:12:00;98190.0;;;14.7;98.8
69198;BME280;56311;50.298;8.514;2023-09-07T02:14:01;98190.0;;;14.6;99.3
69198;BME280;56311;50.298;8.514;2023-09-07T02:16:03;98190.0;;;14.7;99.1
69198;BME280;56311;50.298;8.514;2023-09-07T02:18:00;98190.0;;;14.5;99.6
69198;BME280;56311;50.298;8.514;2023-09-07T02:20:00;98190.0;;;14.6;99.3
69198;BME280;56311;50.298;8.514;2023-09-07T02:22:00;98190.0;;;14.6;99.7
69198;BME280;56311;50.298;8.514;2023-09-07T02:24:00;98190.0;;;14.6;99.8
69198;BME280;56311;50.298;8.514;2023-09-07T02:26:00;98180.0;;;14.6;99.6
69198;BME280;56311;50.298;8.514;2023-09-07T02:28:01;98180.0;;;14.7;99.6
69198;BME280;56311;50.298;8.514;2023-09-07T02:30:00;98180.0;;;14.6;99.8
69198;BME280;56311;50.298;8.514;2023-09-07T02:32:00;98180.0;;;14.5;100.0
69198;BME280;56311;50.298;8.514;2023-09-07T02:34:00;98180.0;;;14.4;99.6
69198;BME280;56311;50.298;8.514;2023-09-07T02:36:00;98180.0;;;14.3;100.0
69198;BME280;56311;50.298;8.514;2023-09-07T02:38:00;98180.0;;;14.3;100.0
69198;BME280;56311;50.298;8.514;2023-09-07T02:40:00;98180.0;;;14.4;100.0
69198;BME280;56311;50.298;8.514;2023-09-07T02:42:00;98180.0;;;14.3;100.0
69198;BME280;56311;50.298;8.514;2023-09-07T02:44:00;98180.0;;;14.4;100.0
69198;BME280;56311;50.298;8.514;2023-09-07T02:46:00;98180.0;;;14.2;100.0
69198;BME280;56311;50.298;8.514;2023-09-07T02:48:00;98180.0;;;14.2;100.0
69198;BME280;56311;50.298;8.514;2023-09-07T02:50:00;98180.0;;;14.2;100.0
69198;BME280;56311;50.298;8.514;2023-09-07T02:52:00;98180.0;;;14.2;100.0
69198;BME280;56311;50.298;8.514;2023-09-07T02:54:01;98180.0;;;14.1;100.0
69198;BME280;56311;50.298;8.514;2023-09-07T02:56:00;98180.0;;;14.1;100.0
69198;BME280;56311;50.298;8.514;2023-09-07T02:58:02;98180.0;;;14.1;100.0
69198;BME280;56311;50.298;8.514;2023-09-07T03:00:00;98180.0;;;14.1;100.0
69198;BME280;56311;50.298;8.514;2023-09-07T03:02:00;98170.0;;;14.1;100.0
69198;BME280;56311;50.298;8.514;2023-09-07T03:04:00;98170.0;;;14.0;100.0
69198;BME280;56311;50.298;8.514;2023-09-07T03:06:07;98170.0;;;14.0;100.0
69198;BME280;56311;50.298;8.514;2023-09-07T03:08:00;98180.0;;;14.0;100.0
69198;BME280;56311;50.298;8.514;2023-09-07T03:10:00;98180.0;;;13.9;100.0
69198;BME280;56311;50.298;8.514;2023-09-07T03:12:00;98180.0;;;13.9;100.0
69198;BME280;56311;50.298;8.514;2023-09-07T03:14:01;98170.0;;;14.0;100.0
69198;BME280;56311;50.298;8.514;2023-09-07T03:16:03;98170.0;;;14.1;100.0
69198;BME280;56311;50.298;8.514;2023-09-07T03:18:00;98170.0;;;14.0;100.0
69198;BME280;56311;50.298;8.514;2023-09-07T03:20:00;98170.0;;;13.9;100.0
69198;BME280;56311;50.298;8.514;2023-09-07T03:22:00;98160.0;;;13.9;100.0
69198;BME280;56311;50.298;8.514;2023-09-07T03:24:00;98160.0;;;13.9;100.0
69198;BME280;56311;50.298;8.514;2023-09-07T03:26:00;98160.0;;;13.9;100.0
69198;BME280;56311;50.298;8.514;2023-09-07T03:28:00;98160.0;;;13.9;100.0
69198;BME280;56311;50.298;8.514;2023-09-07T03:30:00;98170.0;;;13.9;100.0
69198;BME280;56311;50.298;8.514;2023-09-07T03:32:00;98170.0;;;14.0;100.0
69198;BME280;56311;50.298;8.514;2023-09-07T03:34:00;98170.0;;;14.0;100.0
69198;BME280;56311;50.298;8.514;2023-09-07T03:36:00;98170.0;;;13.9;100.0
69198;BME280;56311;50.298;8.514;2023-09-07T03:38:01;98180.0;;;13.8;100.0
69198;BME280;56311;50.298;8.514;2023-09-07T03:40:00;98180.0;;;13.9;100.0
69198;BME280;56311;50.298;8.514;2023-09-07T03:42:00;98180.0;;;13.8;100.0
69198;BME280;56311;50.298;8.514;2023-09-07T03:44:00;98180.0;;;13.6;100.0
69198;BME280;56311;50.298;8.514;2023-09-07T03:46:00;98180.0;;;13.8;100.0
69198;BME280;56311;50.298;8.514;2023-09-07T03:48:00;98180.0;;;13.8;100.0
69198;BME280;56311;50.298;8.514;2023-09-07T03:50:00;98190.0;;;13.8;100.0
69198;BME280;56311;50.298;8.514;2023-09-07T03:52:00;98190.0;;;13.7;100.0
69198;BME280;56311;50.298;8.514;2023-09-07T03:54:00;98190.0;;;13.5;100.0
69198;BME280;56311;50.298;8.514;2023-09-07T03:56:02;98190.0;;;13.6;100.0
69198;BME280;56311;50.298;8.514;2023-09-07T03:58:00;98190.0;;;13.5;100.0
69198;BME280;56311;50.298;8.514;2023-09-07T04:00:00;98190.0;;;13.5;100.0
69198;BME280;56311;50.298;8.514;2023-09-07T04:02:00;98190.0;;;13.3;100.0
69198;BME280;56311;50.298;8.514;2023-09-07T04:04:00;98180.0;;;13.3;100.0
69198;BME280;56311;50.298;8.514;2023-09-07T04:06:00;98190.0;;;13.2;100.0
69198;BME280;56311;50.298;8.514;2023-09-07T04:08:00;98190.0;;;13.2;100.0
69198;BME280;56311;50.298;8.514;2023-09-07T04:10:00;98190.0;;;13.2;100.0
69198;BME280;56311;50.298;8.514;2023-09-07T04:12:00;98190.0;;;13.0;100.0
69198;BME280;56311;50.298;8.514;2023-09-07T04:14:00;98190.0;;;13.2;100.0
69198;BME280;56311;50.298;8.514;2023-09-07T04:16:00;98190.0;;;13.2;100.0
69198;BME280;56311;50.298;8.514;2023-09-07T04:18:01;98190.0;;;13.1;100.0
69198;BME280;56311;50.298;8.514;2023-09-07T04:20:00;98190.0;;;13.1;100.0
69198;BME280;56311;50.298;8.514;2023-09-07T04:22:00;98190.0;;;13.2;100.0
69198;BME280;56311;50.298;8.514;2023-09-07T04:24:00;98190.0;;;13.1;100.0
69198;BME280;56311;50.298;8.514;2023-09-07T04:26:05;98190.0;;;13.1;100.0
69198;BME280;56311;50.298;8.514;2023-09-07T04:28:00;98190.0;;;13.2;100.0
69198;BME280;56311;50.298;8.514;2023-09-07T04:30:00;98190.0;;;13.1;100.0
69198;BME280;56311;50.298;8.514;2023-09-07T04:32:00;98200.0;;;13.1;100.0
69198;BME280;56311;50.298;8.514;2023-09-07T04:34:00;98190.0;;;13.2;100.0
69198;BME280;56311;50.298;8.514;2023-09-07T04:36:06;98190.0;;;13.2;100.0
69198;BME280;56311;50.298;8.514;2023-09-07T04:38:00;98190.0;;;13.3;100.0
69198;BME280;56311;50.298;8.514;2023-09-07T04:40:00;98200.0;;;13.5;100.0
69198;BME280;56311;50.298;8.514;2023-09-07T04:42:00;98190.0;;;13.4;100.0
69198;BME280;56311;50.298;8.514;2023-09-07T04:44:00;98200.0;;;13.5;100.0
69198;BME280;56311;50.298;8.514;2023-09-07T04:46:00;98200.0;;;13.4;100.0
69198;BME280;56311;50.298;8.514;2023-09-07T04:48:00;98200.0;;;13.3;100.0
69198;BME280;56311;50.298;8.514;2023-09-07T04:50:00;98200.0;;;13.4;100.0
69198;BME280;56311;50.298;8.514;2023-09-07T04:52:00;98200.0;;;13.4;100.0
69198;BME280;56311;50.298;8.514;2023-09-07T04:54:00;98200.0;;;13.5;100.0
69198;BME280;56311;50.298;8.514;2023-09-07T04:56:00;98200.0;;;13.3;100.0
69198;BME280;56311;50.298;8.514;2023-09-07T04:58:00;98200.0;;;13.3;100.0
69198;BME280;56311;50.298;8.514;2023-09-07T05:00:00;98200.0;;;13.1;100.0
69198;BME280;56311;50.298;8.514;2023-09-07T05:02:00;98200.0;;;13.3;100.0
69198;BME280;56311;50.298;8.514;2023-09-07T05:04:00;98200.0;;;13.2;100.0
69198;BME280;56311;50.298;8.514;2023-09-07T05:06:01;98200.0;;;13.3;100.0
69198;BME280;56311;50.298;8.514;2023-09-07T05:08:00;98210.0;;;13.0;100.0
69198;BME280;56311;50.298;8.514;2023-09-07T05:10:00;98210.0;;;13.0;100.0
69198;BME280;56311;50.298;8.514;2023-09-07T05:12:00;98210.0;;;13.1;100.0
69198;BME280;56311;50.298;8.514;2023-09-07T05:14:00;98210.0;;;13.1;100.0
69198;BME280;56311;50.298;8.514;2023-09-07T05:16:00;98210.0;;;13.0;100.0
69198;BME280;56311;50.298;8.514;2023-09-07T05:18:00;98210.0;;;13.2;100.0
69198;BME280;56311;50.298;8.514;2023-09-07T05:20:00;98210.0;;;13.1;100.0
69198;BME280;56311;50.298;8.514;2023-09-07T05:22:00;98210.0;;;13.4;100.0
69198;BME280;56311;50.298;8.514;2023-09-07T05:24:00;98210.0;;;13.4;100.0
69198;BME280;56311;50.298;8.514;2023-09-07T05:26:00;98220.0;;;13.4;100.0
69198;BME280;56311;50.298;8.514;2023-09-07T05:28:00;98220.0;;;13.5;100.0
69198;BME280;56311;50.298;8.514;2023-09-07T05:30:00;98220.0;;;13.7;100.0
69198;BME280;56311;50.298;8.514;2023-09-07T05:32:00;98220.0;;;13.7;100.0
69198;BME280;56311;50.298;8.514;2023-09-07T05:34:00;98220.0;;;13.8;100.0
69198;BME280;56311;50.298;8.514;2023-09-07T05:36:00;98220.0;;;14.0;100.0
69198;BME280;56311;50.298;8.514;2023-09-07T05:38:00;98220.0;;;13.7;100.0
69198;BME280;56311;50.298;8.514;2023-09-07T05:40:00;98220.0;;;13.9;100.0
69198;BME280;56311;50.298;8.514;2023-09-07T05:42:00;98220.0;;;14.0;100.0
69198;BME280;56311;50.298;8.514;2023-09-07T05:44:00;98220.0;;;14.0;100.0
69198;BME280;56311;50.298;8.514;2023-09-07T05:46:00;98220.0;;;14.1;100.0
69198;BME280;56311;50.298;8.514;2023-09-07T05:48:00;98220.0;;;14.2;100.0
69198;BME280;56311;50.298;8.514;2023-09-07T05:50:00;98220.0;;;14.4;100.0
69198;BME280;56311;50.298;8.514;2023-09-07T05:52:00;98220.0;;;14.4;100.0
69198;BME280;56311;50.298;8.514;2023-09-07T05:54:00;98220.0;;;14.6;100.0
69198;BME280;56311;50.298;8.514;2023-09-07T05:56:00;98220.0;;;14.6;100.0
69198;BME280;56311;50.298;8.514;2023-09-07T05:58:04;98220.0;;;14.6;100.0
69198;BME280;56311;50.298;8.514;2023-09-07T06:00:00;98220.0;;;14.6;100.0
69198;BME280;56311;50.298;8.514;2023-09-07T06:02:00;98220.0;;;14.7;100.0
69198;BME280;56311;50.298;8.514;2023-09-07T06:04:00;98220.0;;;14.5;100.0
69198;BME280;56311;50.298;8.514;2023-09-07T06:06:00;98210.0;;;14.7;100.0
69198;BME280;56311;50.298;8.514;2023-09-07T06:08:00;98220.0;;;14.7;100.0
69198;BME280;56311;50.298;8.514;2023-09-07T06:10:00;98220.0;;;14.8;100.0
69198;BME280;56311;50.298;8.514;2023-09-07T06:12:00;98220.0;;;14.9;100.0
69198;BME280;56311;50.298;8.514;2023-09-07T06:14:00;98220.0;;;15.1;100.0
69198;BME280;56311;50.298;8.514;2023-09-07T06:16:00;98220.0;;;15.1;100.0
69198;BME280;56311;50.298;8.514;2023-09-07T06:18:00;98220.0;;;15.2;100.0
69198;BME280;56311;50.298;8.514;2023-09-07T06:20:00;98220.0;;;15.4;100.0
69198;BME280;56311;50.298;8.514;2023-09-07T06:22:00;98220.0;;;15.6;100.0
69198;BME280;56311;50.298;8.514;2023-09-07T06:24:00;98230.0;;;15.6;100.0
69198;BME280;56311;50.298;8.514;2023-09-07T06:26:00;98230.0;;;15.8;100.0
69198;BME280;56311;50.298;8.514;2023-09-07T06:28:00;98230.0;;;15.8;100.0
69198;BME280;56311;50.298;8.514;2023-09-07T06:30:00;98230.0;;;15.9;100.0
69198;BME280;56311;50.298;8.514;2023-09-07T06:32:00;98230.0;;;16.1;100.0
69198;BME280;56311;50.298;8.514;2023-09-07T06:34:00;98230.0;;;16.1;100.0
69198;BME280;56311;50.298;8.514;2023-09-07T06:36:00;98230.0;;;16.1;100.0
69198;BME280;56311;50.298;8.514;2023-09-07T06:38:00;98230.0;;;16.2;100.0
69198;BME280;56311;50.298;8.514;2023-09-07T06:40:00;98230.0;;;16.3;100.0
69198;BME280;56311;50.298;8.514;2023-09-07T06:42:00;98230.0;;;16.5;99.3
69198;BME280;56311;50.298;8.514;2023-09-07T06:44:00;98230.0;;;16.6;98.8
69198;BME280;56311;50.298;8.514;2023-09-07T06:46:03;98230.0;;;16.6;97.7
69198;BME280;56311;50.298;8.514;2023-09-07T06:48:00;98230.0;;;16.8;97.2
69198;BME280;56311;50.298;8.514;2023-09-07T06:50:01;98230.0;;;16.8;98.3
69198;BME280;56311;50.298;8.514;2023-09-07T06:52:00;98230.0;;;17.1;97.0
69198;BME280;56311;50.298;8.514;2023-09-07T06:54:00;98230.0;;;17.2;96.1
69198;BME280;56311;50.298;8.514;2023-09-07T06:56:01;98230.0;;;17.0;96.6
69198;BME280;56311;50.298;8.514;2023-09-07T06:58:00;98240.0;;;17.2;97.2
69198;BME280;56311;50.298;8.514;2023-09-07T07:00:00;98240.0;;;17.5;96.6
69198;BME280;56311;50.298;8.514;2023-09-07T07:02:00;98240.0;;;17.5;96.4
69198;BME280;56311;50.298;8.514;2023-09-07T07:04:00;98240.0;;;17.4;96.8
69198;BME280;56311;50.298;8.514;2023-09-07T07:06:00;98240.0;;;17.5;97.6
69198;BME280;56311;50.298;8.514;2023-09-07T07:08:00;98240.0;;;17.5;97.2
69198;BME280;56311;50.298;8.514;2023-09-07T07:10:00;98240.0;;;17.8;96.9
69198;BME280;56311;50.298;8.514;2023-09-07T07:12:00;98250.0;;;18.0;96.4
69198;BME280;56311;50.298;8.514;2023-09-07T07:14:00;98250.0;;;18.2;97.3
69198;BME280;56311;50.298;8.514;2023-09-07T07:16:00;98240.0;;;18.5;94.9
69198;BME280;56311;50.298;8.514;2023-09-07T07:18:00;98250.0;;;18.5;93.8
69198;BME280;56311;50.298;8.514;2023-09-07T07:20:00;98240.0;;;18.8;90.7
69198;BME280;56311;50.298;8.514;2023-09-07T07:22:00;98240.0;;;19.4;90.3
69198;BME280;56311;50.298;8.514;2023-09-07T07:24:00;98250.0;;;19.9;87.0
69198;BME280;56311;50.298;8.514;2023-09-07T07:26:00;98250.0;;;20.2;85.0
69198;BME280;56311;50.298;8.514;2023-09-07T07:28:00;98250.0;;;20.3;81.9
69198;BME280;56311;50.298;8.514;2023-09-07T07:30:00;98250.0;;;20.5;81.5
69198;BME280;56311;50.298;8.514;2023-09-07T07:32:00;98250.0;;;20.5;80.1
69198;BME280;56311;50.298;8.514;2023-09-07T07:34:01;98240.0;;;20.7;80.7
69198;BME280;56311;50.298;8.514;2023-09-07T07:36:00;98250.0;;;20.7;79.3
69198;BME280;56311;50.298;8.514;2023-09-07T07:38:01;98240.0;;;20.8;78.7
69198;BME280;56311;50.298;8.514;2023-09-07T07:40:00;98240.0;;;20.9;78.1
69198;BME280;56311;50.298;8.514;2023-09-07T07:42:00;98240.0;;;21.0;78.5
69198;BME280;56311;50.298;8.514;2023-09-07T07:44:00;98240.0;;;21.2;76.8
69198;BME280;56311;50.298;8.514;2023-09-07T07:46:00;98240.0;;;21.3;76.6
69198;BME280;56311;50.298;8.514;2023-09-07T07:48:00;98240.0;;;21.4;75.1
69198;BME280;56311;50.298;8.514;2023-09-07T07:50:00;98240.0;;;21.6;75.4
69198;BME280;56311;50.298;8.514;2023-09-07T07:52:00;98240.0;;;21.6;73.4
69198;BME280;56311;50.298;8.514;2023-09-07T07:54:00;98250.0;;;21.8;74.4
69198;BME280;56311;50.298;8.514;2023-09-07T07:56:00;98240.0;;;21.9;75.5
69198;BME280;56311;50.298;8.514;2023-09-07T07:58:00;98250.0;;;22.1;72.1
69198;BME280;56311;50.298;8.514;2023-09-07T08:00:01;98250.0;;;22.1;73.3
69198;BME280;56311;50.298;8.514;2023-09-07T08:02:00;98250.0;;;22.0;70.8
69198;BME280;56311;50.298;8.514;2023-09-07T08:04:00;98250.0;;;22.1;69.8
69198;BME280;56311;50.298;8.514;2023-09-07T08:06:00;98250.0;;;22.3;71.4
69198;BME280;56311;50.298;8.514;2023-09-07T08:08:00;98250.0;;;22.5;71.3
69198;BME280;56311;50.298;8.514;2023-09-07T08:10:00;98250.0;;;22.6;68.9
69198;BME280;56311;50.298;8.514;2023-09-07T08:12:00;98250.0;;;22.7;70.2
69198;BME280;56311;50.298;8.514;2023-09-07T08:14:00;98250.0;;;22.5;68.3
69198;BME280;56311;50.298;8.514;2023-09-07T08:16:00;98250.0;;;22.7;69.4
69198;BME280;56311;50.298;8.514;2023-09-07T08:18:00;98250.0;;;22.8;70.6
69198;BME280;56311;50.298;8.514;2023-09-07T08:20:00;98250.0;;;22.8;68.2
69198;BME280;56311;50.298;8.514;2023-09-07T08:22:01;98240.0;;;23.0;69.7
69198;BME280;56311;50.298;8.514;2023-09-07T08:24:00;98250.0;;;23.1;66.8
69198;BME280;56311;50.298;8.514;2023-09-07T08:26:00;98250.0;;;23.1;65.9
69198;BME280;56311;50.298;8.514;2023-09-07T08:28:00;98250.0;;;23.1;65.9
69198;BME280;56311;50.298;8.514;2023-09-07T08:30:00;98250.0;;;23.3;65.6
69198;BME280;56311;50.298;8.514;2023-09-07T08:32:00;98240.0;;;23.6;67.2
69198;BME280;56311;50.298;8.514;2023-09-07T08:34:00;98240.0;;;23.4;64.0
69198;BME280;56311;50.298;8.514;2023-09-07T08:36:00;98250.0;;;23.6;65.2
69198;BME280;56311;50.298;8.514;2023-09-07T08:38:00;98240.0;;;23.7;64.6
69198;BME280;56311;50.298;8.514;2023-09-07T08:40:00;98240.0;;;23.8;64.6
69198;BME280;56311;50.298;8.514;2023-09-07T08:42:00;98240.0;;;23.7;64.3
69198;BME280;56311;50.298;8.514;2023-09-07T08:44:01;98240.0;;;23.8;65.5
69198;BME280;56311;50.298;8.514;2023-09-07T08:46:05;98240.0;;;23.7;63.6
69198;BME280;56311;50.298;8.514;2023-09-07T08:48:01;98240.0;;;23.8;63.9
69198;BME280;56311;50.298;8.514;2023-09-07T08:50:01;98240.0;;;23.9;62.9
69198;BME280;56311;50.298;8.514;2023-09-07T08:52:02;98240.0;;;24.0;62.2
69198;BME280;56311;50.298;8.514;2023-09-07T08:54:00;98240.0;;;24.0;61.5
69198;BME280;56311;50.298;8.514;2023-09-07T08:56:01;98240.0;;;24.3;63.1
69198;BME280;56311;50.298;8.514;2023-09-07T08:58:00;98240.0;;;24.3;62.3
69198;BME280;56311;50.298;8.514;2023-09-07T09:00:00;98240.0;;;24.5;61.6
69198;BME280;56311;50.298;8.514;2023-09-07T09:02:00;98240.0;;;24.5;60.6
69198;BME280;56311;50.298;8.514;2023-09-07T09:04:00;98240.0;;;24.6;60.7
69198;BME280;56311;50.298;8.514;2023-09-07T09:06:00;98240.0;;;24.6;58.9
69198;BME280;56311;50.298;8.514;2023-09-07T09:08:01;98230.0;;;24.8;60.5
69198;BME280;56311;50.298;8.514;2023-09-07T09:10:05;98240.0;;;24.5;60.0
69198;BME280;56311;50.298;8.514;2023-09-07T09:12:08;98240.0;;;24.7;60.7
69198;BME280;56311;50.298;8.514;2023-09-07T09:14:05;98240.0;;;24.7;59.6
69198;BME280;56311;50.298;8.514;2023-09-07T09:16:00;98240.0;;;24.8;60.7
69198;BME280;56311;50.298;8.514;2023-09-07T09:18:09;98240.0;;;25.1;58.8
69198;BME280;56311;50.298;8.514;2023-09-07T09:20:00;98240.0;;;24.8;58.6
69198;BME280;56311;50.298;8.514;2023-09-07T09:22:00;98240.0;;;24.8;59.1
69198;BME280;56311;50.298;8.514;2023-09-07T09:24:00;98240.0;;;24.5;59.9
69198;BME280;56311;50.298;8.514;2023-09-07T09:26:00;98230.0;;;24.5;60.5
69198;BME280;56311;50.298;8.514;2023-09-07T09:28:00;98230.0;;;25.0;60.1
69198;BME280;56311;50.298;8.514;2023-09-07T09:30:01;98230.0;;;25.1;58.2
69198;BME280;56311;50.298;8.514;2023-09-07T09:32:00;98230.0;;;25.2;56.7
69198;BME280;56311;50.298;8.514;2023-09-07T09:34:00;98230.0;;;25.1;59.2
69198;BME280;56311;50.298;8.514;2023-09-07T09:36:00;98220.0;;;25.1;57.3
69198;BME280;56311;50.298;8.514;2023-09-07T09:38:01;98220.0;;;25.3;57.4
69198;BME280;56311;50.298;8.514;2023-09-07T09:40:01;98220.0;;;25.6;56.2
69198;BME280;56311;50.298;8.514;2023-09-07T09:42:01;98220.0;;;25.6;57.0
69198;BME280;56311;50.298;8.514;2023-09-07T09:44:02;98220.0;;;25.9;56.6
69198;BME280;56311;50.298;8.514;2023-09-07T09:46:00;98220.0;;;26.0;54.5
69198;BME280;56311;50.298;8.514;2023-09-07T09:48:01;98210.0;;;26.0;55.2
69198;BME280;56311;50.298;8.514;2023-09-07T09:50:01;98220.0;;;25.8;55.7
69198;BME280;56311;50.298;8.514;2023-09-07T09:52:00;98220.0;;;26.2;55.2
69198;BME280;56311;50.298;8.514;2023-09-07T09:54:01;98220.0;;;26.3;54.9
69198;BME280;56311;50.298;8.514;2023-09-07T09:56:00;98210.0;;;26.3;53.0
69198;BME280;56311;50.298;8.514;2023-09-07T09:58:00;98210.0;;;26.0;53.7
69198;BME280;56311;50.298;8.514;2023-09-07T10:00:00;98210.0;;;26.0;53.4
69198;BME280;56311;50.298;8.514;2023-09-07T10:02:01;98220.0;;;26.3;54.1
69198;BME280;56311;50.298;8.514;2023-09-07T10:04:00;98220.0;;;26.3;55.4
69198;BME280;56311;50.298;8.514;2023-09-07T10:06:09;98210.0;;;26.4;53.5
69198;BME280;56311;50.298;8.514;2023-09-07T10:08:02;98210.0;;;26.3;52.9
69198;BME280;56311;50.298;8.514;2023-09-07T10:10:00;98210.0;;;26.6;53.4
69198;BME280;56311;50.298;8.514;2023-09-07T10:12:01;98210.0;;;26.6;51.6
69198;BME280;56311;50.298;8.514;2023-09-07T10:14:02;98210.0;;;26.8;52.9
69198;BME280;56311;50.298;8.514;2023-09-07T10:16:00;98200.0;;;27.0;50.9
69198;BME280;56311;50.298;8.514;2023-09-07T10:18:06;98200.0;;;26.9;51.3
69198;BME280;56311;50.298;8.514;2023-09-07T10:20:01;98200.0;;;26.9;51.3
69198;BME280;56311;50.298;8.514;2023-09-07T10:22:00;98200.0;;;27.0;50.6
69198;BME280;56311;50.298;8.514;2023-09-07T10:24:00;98200.0;;;27.0;50.5
69198;BME280;56311;50.298;8.514;2023-09-07T10:26:02;98200.0;;;27.0;50.6
69198;BME280;56311;50.298;8.514;2023-09-07T10:28:00;98200.0;;;27.1;49.6
69198;BME280;56311;50.298;8.514;2023-09-07T10:30:00;98200.0;;;26.7;48.3
69198;BME280;56311;50.298;8.514;2023-09-07T10:32:05;98200.0;;;26.8;49.4
69198;BME280;56311;50.298;8.514;2023-09-07T10:34:08;98190.0;;;27.2;50.2
69198;BME280;56311;50.298;8.514;2023-09-07T10:36:01;98180.0;;;27.5;46.3
69198;BME280;56311;50.298;8.514;2023-09-07T10:38:00;98180.0;;;27.4;48.5
69198;BME280;56311;50.298;8.514;2023-09-07T10:40:00;98180.0;;;27.4;50.4
69198;BME280;56311;50.298;8.514;2023-09-07T10:42:00;98180.0;;;27.6;49.9
69198;BME280;56311;50.298;8.514;2023-09-07T10:44:00;98170.0;;;27.5;50.0
69198;BME280;56311;50.298;8.514;2023-09-07T10:46:00;98180.0;;;27.3;51.2
69198;BME280;56311;50.298;8.514;2023-09-07T10:48:02;98170.0;;;27.7;51.5
69198;BME280;56311;50.298;8.514;2023-09-07T10:50:00;98170.0;;;27.8;51.1
69198;BME280;56311;50.298;8.514;2023-09-07T10:52:00;98170.0;;;27.8;49.2
69198;BME280;56311;50.298;8.514;2023-09-07T10:54:00;98170.0;;;27.8;48.1
69198;BME280;56311;50.298;8.514;2023-09-07T10:56:04;98170.0;;;27.9;47.5
69198;BME280;56311;50.298;8.514;2023-09-07T10:58:00;98170.0;;;28.0;49.4